Time;durP1;ratioP1;P1;durP2;ratioP2;P2;SDS_P1;SDS_P2;PMS_P1;PMS_P2;Temp;Humidity;BMP_temperature;BMP_pressure;BME280_temperature;BME280_humidity;BME280_pressure;Samples;Min_cycle;Max_cycle;Signal;HPM_P1;HPM_P2
2021/05/25 00:00:23;;;;;;;1.88;0.70;;;13.60;97.00;;;;;;4973505;28;20022;-82
2021/05/25 00:02:50;;;;;;;2.20;0.90;;;13.60;96.60;;;;;;4975157;28;20078;-83
2021/05/25 00:05:30;;;;;;;2.08;0.50;;;13.60;96.50;;;;;;4972271;28;20524;-80
2021/05/25 00:07:57;;;;;;;1.85;0.73;;;13.60;96.50;;;;;;4973247;28;20039;-81
2021/05/25 00:10:28;;;;;;;0.65;0.55;;;13.60;96.60;;;;;;4973018;28;20057;-81
2021/05/25 00:12:54;;;;;;;1.40;0.60;;;13.60;96.50;;;;;;4972042;28;20070;-83
2021/05/25 00:15:22;;;;;;;1.38;0.60;;;13.60;96.60;;;;;;4973281;28;20511;-84
2021/05/25 00:17:49;;;;;;;2.90;0.93;;;13.50;96.50;;;;;;4973764;28;20090;-83
2021/05/25 00:20:17;;;;;;;1.08;0.80;;;13.50;96.50;;;;;;4955512;28;20055;-81
2021/05/25 00:22:43;;;;;;;3.15;0.90;;;13.50;96.40;;;;;;4972574;28;20545;-83
2021/05/25 00:25:11;;;;;;;1.88;0.80;;;13.50;96.60;;;;;;4972775;28;20122;-82
2021/05/25 00:27:38;;;;;;;2.22;0.77;;;13.50;96.60;;;;;;4971464;28;20027;-82
2021/05/25 00:30:06;;;;;;;1.67;0.70;;;13.50;96.60;;;;;;4972794;28;20465;-80
2021/05/25 00:32:32;;;;;;;0.88;0.57;;;13.50;96.70;;;;;;4974176;28;20019;-83
2021/05/25 00:34:58;;;;;;;1.95;0.75;;;13.50;96.60;;;;;;4955865;28;20166;-81
2021/05/25 00:37:24;;;;;;;3.47;1.00;;;13.50;96.70;;;;;;4972849;28;20058;-82
2021/05/25 00:39:49;;;;;;;3.55;0.93;;;13.50;96.80;;;;;;4972131;28;20046;-83
2021/05/25 00:42:16;;;;;;;3.80;0.60;;;13.50;96.80;;;;;;4972269;28;20499;-82
2021/05/25 00:44:57;;;;;;;4.18;0.80;;;13.40;96.80;;;;;;4974098;28;20057;-82
2021/05/25 00:47:32;;;;;;;1.17;0.80;;;13.50;96.70;;;;;;4971372;28;20659;-79
2021/05/25 00:50:12;;;;;;;1.63;0.60;;;13.50;96.70;;;;;;4972227;28;20543;-81
2021/05/25 00:52:49;;;;;;;2.33;0.77;;;13.50;96.60;;;;;;4972142;28;20092;-82
2021/05/25 00:55:21;;;;;;;1.17;0.68;;;13.50;96.70;;;;;;4972131;28;20031;-84
2021/05/25 00:58:24;;;;;;;1.30;0.50;;;13.50;96.60;;;;;;4972355;28;20492;-84
2021/05/25 01:00:44;;;;;;;1.55;0.80;;;13.50;96.70;;;;;;4969874;28;20070;-83
2021/05/25 01:03:11;;;;;;;0.60;0.60;;;13.50;96.60;;;;;;4972191;28;20053;-83
2021/05/25 01:05:38;;;;;;;0.98;0.50;;;13.50;96.70;;;;;;4972882;28;20440;-83
2021/05/25 01:08:05;;;;;;;1.17;0.60;;;13.50;96.60;;;;;;4972341;28;20034;-83
2021/05/25 01:10:34;;;;;;;2.15;0.80;;;13.50;96.80;;;;;;4971900;28;20065;-84
2021/05/25 01:13:04;;;;;;;1.23;0.73;;;13.50;96.60;;;;;;4972534;28;20037;-82
2021/05/25 01:15:31;;;;;;;1.67;0.90;;;13.50;96.70;;;;;;4972183;28;20591;-84
2021/05/25 01:17:57;;;;;;;1.20;0.88;;;13.60;96.70;;;;;;4956676;28;20034;-82
2021/05/25 01:20:27;;;;;;;4.53;0.80;;;13.60;96.50;;;;;;4968090;28;20491;-84
2021/05/25 01:22:54;;;;;;;2.08;1.10;;;13.60;96.40;;;;;;4953056;28;20605;-84
2021/05/25 01:25:23;;;;;;;1.85;1.00;;;13.60;96.20;;;;;;4952724;28;20039;-82
2021/05/25 01:27:51;;;;;;;2.45;0.75;;;13.60;96.00;;;;;;4951184;29;20202;-84
2021/05/25 01:30:18;;;;;;;1.48;0.80;;;13.60;96.20;;;;;;4952141;28;20054;-84
2021/05/25 01:32:44;;;;;;;1.00;0.50;;;13.60;96.10;;;;;;4954032;28;20103;-85
2021/05/25 01:35:19;;;;;;;0.55;0.38;;;13.60;96.00;;;;;;4958166;28;20046;-81
2021/05/25 01:37:46;;;;;;;1.10;0.68;;;13.50;96.00;;;;;;4991174;28;20479;-84
2021/05/25 01:40:14;;;;;;;3.95;0.73;;;13.50;96.10;;;;;;4991173;28;20515;-81
2021/05/25 01:42:39;;;;;;;2.33;0.60;;;13.50;96.00;;;;;;4990147;28;20026;-82
2021/05/25 01:45:13;;;;;;;0.70;0.70;;;13.50;96.40;;;;;;4991101;28;20263;-85
2021/05/25 01:47:39;;;;;;;2.70;0.73;;;13.50;96.50;;;;;;4992475;28;20070;-85
2021/05/25 01:50:14;;;;;;;0.43;0.43;;;13.50;96.60;;;;;;4990991;28;20475;-83
2021/05/25 01:52:50;;;;;;;4.15;0.70;;;13.40;96.60;;;;;;4993248;28;20092;-83
2021/05/25 01:55:42;;;;;;;1.27;0.63;;;13.50;96.60;;;;;;4991073;28;20045;-88
2021/05/25 01:58:11;;;;;;;2.83;0.93;;;13.50;96.60;;;;;;4990729;28;20022;-86
2021/05/25 02:00:39;;;;;;;1.42;0.60;;;13.40;96.70;;;;;;4990844;28;20249;-85
2021/05/25 02:03:05;;;;;;;2.83;0.70;;;13.40;96.60;;;;;;4991695;28;20462;-84
2021/05/25 02:05:38;;;;;;;1.70;0.73;;;13.40;96.50;;;;;;4993386;28;20134;-84
2021/05/25 02:08:06;;;;;;;2.45;0.40;;;13.40;96.60;;;;;;4990922;28;20038;-86
2021/05/25 02:10:32;;;;;;;3.03;0.60;;;13.40;96.50;;;;;;4991465;28;20038;-88
2021/05/25 02:13:02;;;;;;;3.00;1.00;;;13.40;96.70;;;;;;4991821;28;20030;-83
2021/05/25 02:15:28;;;;;;;0.90;0.50;;;13.40;96.50;;;;;;4992312;28;20031;-87
2021/05/25 02:17:56;;;;;;;5.57;0.90;;;13.50;96.20;;;;;;4993025;28;20037;-85
2021/05/25 02:20:23;;;;;;;3.42;0.80;;;13.50;96.40;;;;;;5012627;28;20061;-84
2021/05/25 02:22:48;;;;;;;0.70;0.70;;;13.40;96.40;;;;;;5018297;28;20030;-82
2021/05/25 02:25:14;;;;;;;2.20;0.95;;;13.50;96.30;;;;;;4996250;28;20026;-83
2021/05/25 02:27:40;;;;;;;2.05;0.70;;;13.40;96.10;;;;;;5010823;28;20041;-83
2021/05/25 02:30:07;;;;;;;2.22;0.73;;;13.40;96.30;;;;;;5010421;28;20406;-83
2021/05/25 02:32:32;;;;;;;1.13;0.77;;;13.40;96.00;;;;;;5011984;28;20025;-82
2021/05/25 02:34:58;;;;;;;1.48;0.57;;;13.40;95.90;;;;;;4993157;28;20022;-82
2021/05/25 02:37:24;;;;;;;1.45;0.45;;;13.40;95.90;;;;;;5010452;28;20034;-83
2021/05/25 02:39:49;;;;;;;1.13;0.60;;;13.30;95.60;;;;;;5010685;28;20363;-82
2021/05/25 02:42:15;;;;;;;1.92;0.60;;;13.30;95.50;;;;;;4994889;28;20036;-84
2021/05/25 02:44:41;;;;;;;2.20;0.50;;;13.40;95.60;;;;;;5015900;28;20107;-85
2021/05/25 02:47:07;;;;;;;0.93;0.68;;;13.30;95.30;;;;;;5014335;28;20034;-85
2021/05/25 02:49:34;;;;;;;1.40;0.70;;;13.30;95.40;;;;;;5014410;28;20045;-82
2021/05/25 02:52:00;;;;;;;0.75;0.70;;;13.30;95.10;;;;;;5013770;28;20042;-83
2021/05/25 02:54:26;;;;;;;0.98;0.70;;;13.30;95.20;;;;;;4996408;28;20034;-85
2021/05/25 02:56:52;;;;;;;2.25;0.63;;;13.30;95.00;;;;;;5015249;28;20022;-83
2021/05/25 02:59:17;;;;;;;2.33;0.95;;;13.20;95.10;;;;;;4996354;28;20444;-84
2021/05/25 03:01:43;;;;;;;1.15;0.80;;;13.20;95.20;;;;;;5013661;28;20033;-84
2021/05/25 03:04:09;;;;;;;1.65;0.52;;;13.20;95.30;;;;;;5013488;28;20115;-82
2021/05/25 03:06:34;;;;;;;1.15;0.70;;;13.10;95.20;;;;;;5013300;28;20041;-84
2021/05/25 03:09:00;;;;;;;1.13;0.77;;;13.00;95.20;;;;;;5014837;28;20088;-83
2021/05/25 03:11:27;;;;;;;0.68;0.55;;;13.00;95.10;;;;;;5013355;28;20068;-86
2021/05/25 03:14:15;;;;;;;1.42;0.60;;;13.00;95.20;;;;;;5008610;28;20455;-84
2021/05/25 03:16:42;;;;;;;0.98;0.57;;;13.10;95.00;;;;;;4974265;28;20050;-85
2021/05/25 03:19:10;;;;;;;1.67;0.60;;;13.10;95.00;;;;;;4973869;28;20051;-86
2021/05/25 03:21:35;;;;;;;1.92;0.90;;;13.20;94.90;;;;;;4973242;28;20058;-86
2021/05/25 03:24:01;;;;;;;1.38;0.85;;;13.30;95.10;;;;;;4976088;28;20140;-85
2021/05/25 03:26:26;;;;;;;2.70;0.63;;;13.20;95.10;;;;;;4973923;28;20035;-84
2021/05/25 03:28:52;;;;;;;1.35;0.52;;;13.20;95.00;;;;;;4973834;28;20165;-83
2021/05/25 03:31:18;;;;;;;1.05;0.65;;;13.20;95.10;;;;;;4973548;28;20050;-84
2021/05/25 03:33:43;;;;;;;1.38;0.57;;;13.20;94.70;;;;;;4974067;28;20110;-84
2021/05/25 03:36:09;;;;;;;5.47;0.50;;;13.20;94.60;;;;;;4973912;28;20026;-84
2021/05/25 03:38:35;;;;;;;2.53;0.70;;;13.20;94.80;;;;;;4975457;28;20027;-85
2021/05/25 03:41:00;;;;;;;1.50;0.73;;;13.20;94.60;;;;;;4973934;28;20057;-84
2021/05/25 03:43:26;;;;;;;2.55;0.80;;;13.10;94.50;;;;;;4974319;28;20446;-85
2021/05/25 03:45:52;;;;;;;1.98;0.82;;;13.10;94.60;;;;;;4972579;28;20038;-84
2021/05/25 03:48:17;;;;;;;1.85;0.60;;;13.10;94.40;;;;;;4973764;28;20035;-82
2021/05/25 03:50:44;;;;;;;3.35;0.52;;;13.10;94.30;;;;;;4974283;28;20360;-84
2021/05/25 03:53:32;;;;;;;0.87;0.60;;;13.00;94.20;;;;;;4973417;28;20038;-84
2021/05/25 03:56:24;;;;;;;2.25;0.60;;;13.00;94.20;;;;;;4972759;28;20256;-84
2021/05/25 03:58:50;;;;;;;2.63;0.50;;;13.00;94.00;;;;;;4973029;28;20050;-86
2021/05/25 04:01:26;;;;;;;;;;;13.00;93.90;;;;;;4973670;28;20372;-83
2021/05/25 04:03:53;;;;;;;3.88;1.15;;;12.90;93.80;;;;;;4974348;28;19914;-84
2021/05/25 04:06:20;;;;;;;1.13;0.60;;;12.90;94.00;;;;;;4973643;28;20080;-84
2021/05/25 04:08:46;;;;;;;2.28;1.13;;;13.00;93.80;;;;;;4978666;28;20054;-83
2021/05/25 04:11:13;;;;;;;1.23;0.60;;;13.00;94.00;;;;;;4976335;28;20043;-86
2021/05/25 04:13:39;;;;;;;1.55;0.70;;;13.00;93.80;;;;;;4973829;28;20062;-84
2021/05/25 04:16:08;;;;;;;2.75;0.52;;;13.10;93.70;;;;;;4973247;28;20811;-84
2021/05/25 04:18:34;;;;;;;1.95;0.73;;;13.20;93.60;;;;;;4972970;28;20051;-86
2021/05/25 04:21:00;;;;;;;2.53;0.50;;;13.00;93.30;;;;;;4957701;28;20156;-88
2021/05/25 04:23:26;;;;;;;1.83;0.63;;;13.00;93.30;;;;;;4973555;28;20039;-86
2021/05/25 04:25:52;;;;;;;1.60;0.57;;;13.00;93.40;;;;;;4973802;28;20372;-85
2021/05/25 04:28:18;;;;;;;2.95;0.73;;;13.10;93.30;;;;;;4973118;28;20047;-84
2021/05/25 04:30:44;;;;;;;2.55;0.77;;;13.10;93.10;;;;;;4972969;28;20035;-88
2021/05/25 04:33:11;;;;;;;0.63;0.60;;;13.00;93.20;;;;;;4955464;28;20359;-86
2021/05/25 04:35:37;;;;;;;0.70;0.50;;;13.00;93.20;;;;;;4974203;28;20022;-84
2021/05/25 04:38:03;;;;;;;1.13;0.60;;;13.00;93.20;;;;;;4972442;28;20334;-84
2021/05/25 04:40:30;;;;;;;2.88;0.55;;;13.00;92.90;;;;;;4972011;28;20477;-87
2021/05/25 04:42:56;;;;;;;3.22;0.73;;;13.00;92.90;;;;;;4971525;28;20043;-83
2021/05/25 04:45:22;;;;;;;1.10;0.60;;;12.90;93.10;;;;;;4972313;28;20353;-84
2021/05/25 04:47:49;;;;;;;3.05;0.60;;;12.80;93.00;;;;;;4972956;28;20058;-80
2021/05/25 04:50:16;;;;;;;1.98;0.50;;;13.00;93.00;;;;;;4972505;28;20035;-82
2021/05/25 04:52:42;;;;;;;1.63;0.50;;;13.00;92.90;;;;;;4971070;28;20066;-83
2021/05/25 04:55:11;;;;;;;3.17;0.80;;;13.00;92.80;;;;;;4971437;28;20105;-79
2021/05/25 04:57:37;;;;;;;2.30;0.90;;;13.00;92.80;;;;;;4971837;28;20057;-82
2021/05/25 05:00:09;;;;;;;2.60;0.65;;;13.00;92.70;;;;;;4972563;28;20415;-79
2021/05/25 05:02:34;;;;;;;0.50;0.50;;;13.10;92.60;;;;;;4972559;28;20045;-82
2021/05/25 05:05:01;;;;;;;1.75;0.70;;;13.10;92.60;;;;;;4971183;28;20039;-81
2021/05/25 05:07:26;;;;;;;3.08;0.70;;;13.20;92.50;;;;;;4954896;28;20130;-82
2021/05/25 05:09:52;;;;;;;4.70;1.08;;;13.20;92.40;;;;;;4970766;28;20544;-81
2021/05/25 05:12:18;;;;;;;0.60;0.40;;;13.20;92.50;;;;;;4971607;28;20042;-80
2021/05/25 05:14:44;;;;;;;4.53;0.77;;;13.30;92.40;;;;;;4973268;28;20023;-81
2021/05/25 05:17:09;;;;;;;2.30;1.00;;;13.40;92.50;;;;;;4971779;28;20125;-81
2021/05/25 05:19:36;;;;;;;2.55;0.80;;;13.40;92.40;;;;;;4976219;28;20054;-81
2021/05/25 05:22:02;;;;;;;2.15;0.60;;;13.40;92.50;;;;;;4966546;28;20169;-82
2021/05/25 05:24:27;;;;;;;1.23;0.60;;;13.40;92.40;;;;;;4976659;28;20111;-83
2021/05/25 05:26:53;;;;;;;3.75;0.90;;;13.50;92.50;;;;;;4973281;28;20049;-81
2021/05/25 05:29:23;;;;;;;2.55;0.63;;;13.50;92.30;;;;;;4971281;28;20097;-81
2021/05/25 05:31:49;;;;;;;4.47;0.47;;;13.50;92.40;;;;;;4971974;28;20031;-82
2021/05/25 05:34:15;;;;;;;3.58;0.77;;;13.50;92.30;;;;;;4971700;28;20039;-82
2021/05/25 05:36:41;;;;;;;3.65;0.95;;;13.50;92.40;;;;;;4971789;28;20122;-81
2021/05/25 05:39:07;;;;;;;1.35;0.57;;;13.50;92.50;;;;;;4972391;28;20106;-81
2021/05/25 05:41:32;;;;;;;1.58;0.63;;;13.50;92.70;;;;;;4975162;28;20109;-80
2021/05/25 05:43:59;;;;;;;2.10;0.63;;;13.40;92.60;;;;;;4972514;28;20089;-82
2021/05/25 05:46:24;;;;;;;1.42;0.82;;;13.40;92.80;;;;;;4972622;28;20078;-81
2021/05/25 05:48:51;;;;;;;2.38;1.10;;;13.50;93.00;;;;;;4972354;28;20063;-76
2021/05/25 05:51:18;;;;;;;2.50;0.82;;;13.50;93.20;;;;;;4971232;28;20078;-82
2021/05/25 05:53:43;;;;;;;1.95;0.80;;;13.50;93.20;;;;;;4958144;28;20019;-80
2021/05/25 05:56:09;;;;;;;2.03;0.80;;;13.60;93.30;;;;;;4971909;28;20089;-77
2021/05/25 05:58:35;;;;;;;3.78;1.20;;;13.60;93.10;;;;;;4954596;28;20109;-78
2021/05/25 06:01:01;;;;;;;2.35;1.00;;;13.60;93.30;;;;;;4970554;28;20046;-81
2021/05/25 06:03:26;;;;;;;2.55;0.80;;;13.70;93.20;;;;;;4955291;28;20041;-79
2021/05/25 06:06:15;;;;;;;1.17;0.55;;;13.60;92.50;;;;;;4974607;28;20106;-78
2021/05/25 06:08:45;;;;;;;3.25;0.82;;;13.80;92.00;;;;;;4955671;28;20034;-78
2021/05/25 06:11:10;;;;;;;3.78;0.75;;;14.10;91.50;;;;;;4970648;28;20042;-78
2021/05/25 06:13:37;;;;;;;2.65;0.75;;;14.20;91.10;;;;;;4971043;28;20042;-77
2021/05/25 06:16:03;;;;;;;28.92;3.00;;;14.40;90.90;;;;;;4969374;28;20130;-77
2021/05/25 06:18:34;;;;;;;2.17;0.77;;;14.50;90.90;;;;;;4953405;28;20095;-79
2021/05/25 06:21:02;;;;;;;3.33;1.02;;;14.70;90.50;;;;;;4973076;28;20030;-78
2021/05/25 06:23:29;;;;;;;3.42;0.80;;;14.60;90.00;;;;;;4954424;28;20050;-81
2021/05/25 06:25:56;;;;;;;5.05;1.15;;;14.60;90.20;;;;;;4971835;28;20038;-78
2021/05/25 06:28:36;;;;;;;1.13;0.80;;;14.70;90.20;;;;;;4956079;28;20049;-80
2021/05/25 06:31:01;;;;;;;3.25;0.70;;;14.60;89.80;;;;;;4970850;28;20043;-76
2021/05/25 06:33:28;;;;;;;3.47;1.38;;;14.60;89.90;;;;;;4953268;28;20042;-79
2021/05/25 06:36:00;;;;;;;3.78;1.00;;;14.80;89.60;;;;;;4972408;28;20023;-78
2021/05/25 06:38:43;;;;;;;1.50;0.60;;;14.60;88.50;;;;;;4970398;28;20097;-76
2021/05/25 06:41:08;;;;;;;2.72;0.70;;;14.50;88.60;;;;;;4969382;28;20039;-77
2021/05/25 06:43:34;;;;;;;2.83;1.20;;;14.40;87.70;;;;;;4970222;28;20499;-76
2021/05/25 06:46:04;;;;;;;4.78;0.90;;;14.40;88.10;;;;;;4953345;28;20051;-76
2021/05/25 06:48:29;;;;;;;4.45;1.25;;;14.50;88.20;;;;;;4970335;28;20058;-77
2021/05/25 06:50:56;;;;;;;4.78;1.00;;;14.70;87.90;;;;;;4970766;28;20456;-78
2021/05/25 06:53:35;;;;;;;5.35;0.88;;;14.70;87.30;;;;;;4970030;28;20452;-77
2021/05/25 06:56:26;;;;;;;7.57;1.27;;;14.80;87.20;;;;;;4970134;28;20074;-75
2021/05/25 06:58:52;;;;;;;3.33;0.60;;;14.50;86.60;;;;;;4951854;28;20063;-75
2021/05/25 07:01:37;;;;;;;2.55;0.77;;;14.50;87.10;;;;;;4970271;28;20062;-83
2021/05/25 07:04:19;;;;;;;4.47;0.70;;;14.50;87.50;;;;;;4969977;28;20054;-79
2021/05/25 07:06:44;;;;;;;5.70;0.70;;;14.40;87.10;;;;;;4984780;28;20041;-77
2021/05/25 07:09:13;;;;;;;6.93;0.90;;;14.20;87.50;;;;;;4972113;28;20030;-77
2021/05/25 07:11:54;;;;;;;7.38;1.02;;;14.20;87.50;;;;;;4991574;28;20018;-77
2021/05/25 07:14:19;;;;;;;2.60;1.13;;;14.10;87.60;;;;;;4988543;28;20142;-76
2021/05/25 07:16:57;;;;;;;4.82;0.80;;;14.00;87.60;;;;;;4989269;28;20062;-78
2021/05/25 07:19:41;;;;;;;1.98;0.60;;;14.00;88.00;;;;;;4988058;28;20433;-81
2021/05/25 07:23:13;;;;;;;1.77;0.65;;;13.90;88.20;;;;;;4989403;28;20037;-80
2021/05/25 07:25:41;;;;;;;3.90;1.07;;;13.90;88.30;;;;;;4986161;28;20043;-81
2021/05/25 07:32:53;;;;;;;6.70;1.35;;;14.10;88.50;;;;;;4889343;29;20040;-80
2021/05/25 07:35:37;;;;;;;4.55;0.70;;;14.40;87.80;;;;;;4996299;28;20074;-81
2021/05/25 07:38:05;;;;;;;3.30;0.90;;;14.50;87.10;;;;;;4973519;28;20090;-82
2021/05/25 07:41:06;;;;;;;3.08;0.47;;;14.50;86.80;;;;;;4972304;28;20055;-79
2021/05/25 07:43:35;;;;;;;1.27;0.70;;;14.40;86.40;;;;;;4972800;28;20041;-77
2021/05/25 07:46:02;;;;;;;3.00;0.88;;;14.60;87.00;;;;;;4973362;28;20046;-81
2021/05/25 07:48:28;;;;;;;5.97;0.97;;;14.70;86.40;;;;;;4973238;28;20093;-82
2021/05/25 07:51:01;;;;;;;6.05;1.10;;;14.60;86.00;;;;;;4974557;28;20031;-83
2021/05/25 07:53:27;;;;;;;4.22;0.73;;;14.60;86.20;;;;;;4973154;28;20367;-80
2021/05/25 07:59:26;;;;;;;2.83;0.55;;;14.60;85.70;;;;;;4953998;28;20039;-78
2021/05/25 08:02:41;;;;;;;3.53;0.80;;;14.60;85.40;;;;;;4972375;28;20067;-78
2021/05/25 08:05:39;;;;;;;1.38;0.50;;;14.50;85.20;;;;;;4967011;28;20491;-78
2021/05/25 08:08:08;;;;;;;2.83;0.93;;;14.30;85.80;;;;;;4986270;28;20042;-79
2021/05/25 08:10:36;;;;;;;3.92;0.63;;;14.20;86.50;;;;;;4994213;28;20108;-83
2021/05/25 08:13:03;;;;;;;7.72;1.40;;;14.20;87.20;;;;;;4994533;28;20034;-82
2021/05/25 08:15:30;;;;;;;1.48;0.70;;;14.00;86.90;;;;;;4996565;28;20045;-83
2021/05/25 08:20:29;;;;;;;3.05;1.45;;;14.60;87.50;;;;;;5016355;28;20057;-82
2021/05/25 08:22:58;;;;;;;1.42;0.50;;;15.80;86.70;;;;;;5014202;28;20099;-79
2021/05/25 08:25:27;;;;;;;6.38;0.77;;;17.30;84.70;;;;;;5013031;28;20091;-78
2021/05/25 08:27:54;;;;;;;4.20;1.58;;;18.40;82.00;;;;;;5012413;28;20100;-82
2021/05/25 08:30:22;;;;;;;4.97;2.28;;;18.70;76.60;;;;;;5011451;28;20082;-80
2021/05/25 08:32:50;;;;;;;3.20;0.68;;;18.60;76.40;;;;;;5013213;28;20067;-81
2021/05/25 08:35:17;;;;;;;1.23;0.43;;;18.10;74.30;;;;;;5011423;28;20490;-81
2021/05/25 08:37:46;;;;;;;4.78;0.70;;;17.80;73.30;;;;;;5011550;28;20444;-79
2021/05/25 08:40:12;;;;;;;0.77;0.30;;;17.40;73.60;;;;;;5009960;28;20117;-78
2021/05/25 08:42:38;;;;;;;1.70;0.50;;;16.70;73.80;;;;;;5011470;28;20119;-80
2021/05/25 08:45:06;;;;;;;1.48;0.40;;;16.40;73.90;;;;;;4997542;28;20026;-80
2021/05/25 08:47:33;;;;;;;;;;;15.90;75.20;;;;;;5013322;28;20042;-83
2021/05/25 08:49:59;;;;;;;0.90;0.40;;;16.00;76.30;;;;;;5012064;28;19913;-83
2021/05/25 08:52:26;;;;;;;1.58;0.40;;;15.90;76.40;;;;;;5011444;28;20033;-82
2021/05/25 08:54:52;;;;;;;4.43;0.95;;;15.80;76.90;;;;;;5011662;28;20192;-83
2021/05/25 08:57:18;;;;;;;2.30;0.68;;;15.50;78.40;;;;;;5010961;28;20475;-83
2021/05/25 08:59:43;;;;;;;1.50;0.70;;;15.30;79.10;;;;;;5012722;28;20025;-84
2021/05/25 09:02:14;;;;;;;3.72;0.43;;;15.40;80.20;;;;;;5011034;28;20048;-85
2021/05/25 09:05:04;;;;;;;3.58;0.55;;;15.10;80.60;;;;;;5011017;28;20034;-83
2021/05/25 09:07:49;;;;;;;2.35;0.40;;;15.20;80.50;;;;;;5011052;28;20041;-85
2021/05/25 09:10:23;;;;;;;0.77;0.47;;;15.70;80.90;;;;;;5010894;28;20049;-82
2021/05/25 09:12:51;;;;;;;1.50;0.60;;;16.70;78.90;;;;;;5010763;28;20277;-81
2021/05/25 09:15:37;;;;;;;1.05;0.38;;;16.70;77.40;;;;;;5010498;28;20382;-82
2021/05/25 09:18:08;;;;;;;1.65;0.60;;;16.80;76.10;;;;;;5012698;28;20352;-81
2021/05/25 09:21:01;;;;;;;1.25;0.30;;;16.70;76.10;;;;;;4993171;28;20076;-82
2021/05/25 09:23:33;;;;;;;0.40;0.30;;;16.90;76.20;;;;;;4989777;28;20042;-82
2021/05/25 09:26:06;;;;;;;0.73;0.20;;;16.90;75.90;;;;;;4993075;28;20030;-80
2021/05/25 09:28:33;;;;;;;0.55;0.32;;;17.40;75.20;;;;;;5010496;28;20041;-83
2021/05/25 09:30:59;;;;;;;2.47;0.50;;;17.70;73.20;;;;;;5011254;28;20046;-84
2021/05/25 09:33:25;;;;;;;3.80;0.47;;;18.30;71.30;;;;;;5011162;28;20338;-84
2021/05/25 09:35:52;;;;;;;0.20;0.20;;;18.30;71.30;;;;;;5016426;28;20045;-85
2021/05/25 09:38:26;;;;;;;0.20;0.20;;;18.30;71.10;;;;;;5012143;28;20598;-83
2021/05/25 09:40:52;;;;;;;2.15;0.40;;;18.50;71.50;;;;;;4993232;28;20046;-85
2021/05/25 09:43:21;;;;;;;0.52;0.10;;;18.50;69.70;;;;;;4994033;28;20038;-90
2021/05/25 09:46:02;;;;;;;0.40;0.10;;;18.60;70.30;;;;;;5011803;28;20025;-86
2021/05/25 09:48:50;;;;;;;0.10;0.10;;;18.20;72.00;;;;;;5010936;28;20431;-88
2021/05/25 09:51:34;;;;;;;2.63;0.40;;;17.80;72.70;;;;;;5010300;28;20095;-84
2021/05/25 09:54:02;;;;;;;4.90;0.32;;;17.60;73.10;;;;;;5012854;28;20436;-87
2021/05/25 09:56:32;;;;;;;1.33;0.55;;;17.20;73.50;;;;;;4993526;28;20034;-86
2021/05/25 09:58:59;;;;;;;3.45;0.40;;;16.90;74.20;;;;;;5010372;28;20052;-86
2021/05/25 10:01:33;;;;;;;0.85;0.43;;;16.60;71.60;;;;;;5010547;28;20053;-82
2021/05/25 10:04:09;;;;;;;0.70;0.38;;;16.40;70.90;;;;;;5010629;28;20034;-84
2021/05/25 10:06:35;;;;;;;0.70;0.22;;;16.30;71.30;;;;;;5010632;28;20168;-84
2021/05/25 10:09:01;;;;;;;0.63;0.38;;;16.30;71.70;;;;;;4994654;28;20069;-87
2021/05/25 10:11:28;;;;;;;1.80;0.77;;;16.30;71.80;;;;;;5010217;28;20060;-85
2021/05/25 10:13:54;;;;;;;8.50;4.28;;;16.20;70.80;;;;;;5009744;28;20038;-83
2021/05/25 10:16:23;;;;;;;0.80;0.25;;;16.70;72.00;;;;;;4992902;28;20097;-84
2021/05/25 10:19:03;;;;;;;0.30;0.30;;;17.10;71.50;;;;;;5011617;28;20045;-86
2021/05/25 10:21:30;;;;;;;1.50;0.60;;;17.30;70.10;;;;;;4993941;28;20152;-85
2021/05/25 10:23:59;;;;;;;1.52;0.40;;;17.50;69.30;;;;;;4994041;28;20045;-88
2021/05/25 10:26:26;;;;;;;0.80;0.30;;;17.60;67.80;;;;;;5010926;28;20484;-85
2021/05/25 10:28:53;;;;;;;2.28;0.38;;;17.60;65.90;;;;;;4992312;28;20042;-83
2021/05/25 10:31:32;;;;;;;0.65;0.22;;;17.30;66.40;;;;;;5010172;28;20049;-84
2021/05/25 10:34:20;;;;;;;2.00;0.50;;;17.30;66.20;;;;;;5010688;28;20034;-85
2021/05/25 10:36:47;;;;;;;1.30;0.40;;;17.40;66.50;;;;;;5010642;28;20034;-82
2021/05/25 10:39:34;;;;;;;3.80;3.27;;;17.20;65.90;;;;;;5010298;28;20491;-83
2021/05/25 10:44:45;;;;;;;1.15;0.40;;;16.70;67.00;;;;;;5010609;28;20346;-89
2021/05/25 10:47:19;;;;;;;0.50;0.20;;;16.50;67.00;;;;;;5010057;28;20034;-83
2021/05/25 10:50:16;;;;;;;1.67;0.85;;;16.70;68.00;;;;;;4992258;28;20435;-82
2021/05/25 10:52:59;;;;;;;2.55;0.50;;;16.70;68.00;;;;;;4992073;28;20080;-84
2021/05/25 10:55:33;;;;;;;3.53;0.60;;;16.60;67.80;;;;;;5009667;28;20460;-80
2021/05/25 10:58:00;;;;;;;3.28;0.50;;;16.80;68.50;;;;;;4992415;28;20026;-88
2021/05/25 11:00:34;;;;;;;0.45;0.30;;;16.80;67.60;;;;;;4994319;28;20034;-84
2021/05/25 11:03:17;;;;;;;2.15;0.40;;;16.90;68.80;;;;;;4992165;28;20025;-84
2021/05/25 11:05:47;;;;;;;2.90;0.50;;;16.90;69.70;;;;;;4976029;28;20062;-86
2021/05/25 11:08:14;;;;;;;0.90;0.30;;;17.00;70.30;;;;;;4975824;28;20465;-88
2021/05/25 11:10:53;;;;;;;2.35;0.60;;;17.10;69.30;;;;;;4975299;28;20034;-86
2021/05/25 11:13:22;;;;;;;2.67;0.60;;;17.20;69.30;;;;;;4961167;28;20041;-86
2021/05/25 11:18:48;;;;;;;1.17;0.50;;;17.30;68.60;;;;;;4985340;28;20027;-90
2021/05/25 11:24:51;;;;;;;1.40;0.70;;;17.50;67.80;;;;;;4985304;28;20099;-83
2021/05/25 11:27:46;;;;;;;0.50;0.35;;;17.50;67.80;;;;;;4963437;28;20027;-89
2021/05/25 11:30:24;;;;;;;2.30;0.77;;;17.60;67.70;;;;;;4983646;28;20050;-83
2021/05/25 11:32:52;;;;;;;1.52;0.90;;;17.50;67.50;;;;;;4983157;28;20015;-82
2021/05/25 11:35:27;;;;;;;3.30;1.05;;;17.40;68.80;;;;;;4975614;28;20489;-83
2021/05/25 11:37:55;;;;;;;2.65;0.70;;;17.00;68.50;;;;;;4974100;28;20039;-82
2021/05/25 11:40:29;;;;;;;2.33;0.47;;;16.80;68.90;;;;;;4974397;28;20109;-81
2021/05/25 11:42:55;;;;;;;0.40;0.20;;;16.50;69.80;;;;;;4956915;28;20317;-77
2021/05/25 11:45:26;;;;;;;0.93;0.40;;;16.10;70.60;;;;;;4973351;28;20117;-81
2021/05/25 11:48:00;;;;;;;0.65;0.38;;;15.90;70.90;;;;;;4958279;28;20027;-81
2021/05/25 11:50:28;;;;;;;0.70;0.50;;;15.90;71.90;;;;;;4973021;28;20097;-80
2021/05/25 11:52:55;;;;;;;1.42;0.40;;;16.00;72.30;;;;;;4972653;28;20101;-81
2021/05/25 11:55:23;;;;;;;1.83;0.80;;;16.10;72.80;;;;;;4973120;28;20121;-79
2021/05/25 11:57:50;;;;;;;1.73;0.70;;;16.40;72.80;;;;;;4972996;28;20361;-78
2021/05/25 12:00:21;;;;;;;2.67;0.90;;;16.60;72.80;;;;;;4955759;28;20797;-75
2021/05/25 12:02:57;;;;;;;0.88;0.60;;;16.40;73.10;;;;;;4974534;28;20479;-78
2021/05/25 12:05:31;;;;;;;3.50;1.50;;;16.70;72.40;;;;;;4972394;28;20034;-79
2021/05/25 12:08:02;;;;;;;0.65;0.38;;;17.00;72.20;;;;;;4972650;28;20049;-81
2021/05/25 12:10:31;;;;;;;0.30;0.30;;;16.90;71.80;;;;;;4955782;28;20478;-78
2021/05/25 12:13:16;;;;;;;0.98;0.65;;;17.00;72.00;;;;;;4972971;28;20031;-77
2021/05/25 12:15:48;;;;;;;0.95;0.20;;;16.90;72.20;;;;;;4973071;28;20045;-77
2021/05/25 12:18:16;;;;;;;2.42;0.50;;;16.60;71.30;;;;;;4971756;28;20449;-76
2021/05/25 12:20:44;;;;;;;0.60;0.40;;;16.50;70.90;;;;;;4973945;28;20067;-76
2021/05/25 12:23:15;;;;;;;1.83;0.50;;;16.40;70.50;;;;;;4972599;28;20042;-79
2021/05/25 12:25:45;;;;;;;0.43;0.40;;;16.60;70.80;;;;;;4971901;28;20046;-77
2021/05/25 12:28:17;;;;;;;0.43;0.32;;;16.40;70.60;;;;;;4972084;28;20034;-76
2021/05/25 12:30:50;;;;;;;0.38;0.30;;;16.60;70.50;;;;;;4972375;28;20069;-77
2021/05/25 12:33:24;;;;;;;5.15;3.25;;;16.70;69.40;;;;;;4972460;28;20101;-76
2021/05/25 12:35:50;;;;;;;2.33;0.75;;;16.60;70.30;;;;;;4956931;28;20066;-78
2021/05/25 12:38:21;;;;;;;1.52;1.05;;;16.70;70.10;;;;;;4972290;28;20483;-76
2021/05/25 12:40:58;;;;;;;1.75;1.10;;;16.70;70.10;;;;;;4954691;28;20038;-76
2021/05/25 12:43:26;;;;;;;0.93;0.73;;;16.60;70.00;;;;;;4972062;28;20469;-78
2021/05/25 12:45:53;;;;;;;0.93;0.50;;;16.80;70.00;;;;;;4972151;28;20027;-76
2021/05/25 12:48:32;;;;;;;2.13;0.70;;;16.80;69.10;;;;;;4972042;28;20502;-76
2021/05/25 12:50:58;;;;;;;1.48;0.60;;;17.10;68.90;;;;;;4973496;28;20281;-77
2021/05/25 12:53:24;;;;;;;0.85;0.50;;;17.00;68.00;;;;;;4972508;28;20045;-76
2021/05/25 12:55:53;;;;;;;0.45;0.40;;;17.10;68.50;;;;;;4954805;28;20159;-77
2021/05/25 12:58:42;;;;;;;6.53;0.60;;;17.20;68.70;;;;;;4971316;28;20043;-76
2021/05/25 13:01:28;;;;;;;2.92;0.70;;;17.40;69.00;;;;;;4954537;28;20382;-78
2021/05/25 13:04:17;;;;;;;1.00;0.47;;;17.20;69.40;;;;;;4954457;28;20034;-77
2021/05/25 13:10:10;;;;;;;1.73;0.50;;;17.20;70.70;;;;;;4971506;28;20351;-77
2021/05/25 13:12:03;;;;;;;1.05;0.73;;;17.10;71.00;;;;;;4965765;28;20069;-80
2021/05/25 13:14:32;;;;;;;1.45;0.60;;;17.10;71.50;;;;;;4971941;28;20041;-80
2021/05/25 13:16:58;;;;;;;1.35;0.70;;;16.90;72.10;;;;;;4953716;28;20047;-78
2021/05/25 13:19:43;;;;;;;1.17;0.60;;;16.80;72.50;;;;;;4970916;28;20140;-79
2021/05/25 13:22:29;;;;;;;0.88;0.50;;;16.80;72.60;;;;;;4971029;28;20045;-79
2021/05/25 13:25:04;;;;;;;0.73;0.70;;;16.70;73.00;;;;;;4960347;28;20043;-78
2021/05/25 13:27:34;;;;;;;1.45;0.70;;;16.80;73.30;;;;;;4970260;28;20400;-80